Airport View

Enter AWOS ICAO identifier for current METAR.

ex. KFNL

KAUN 191255Z AUTO 00000KT 10SM CLR 02/M07 A3013 RMK A01

19 Feb 2019 13:19

Frequency: 119.375

Phone: 530-888-8934

Other Area AWOS: KLHM - KGOO - KBAB - KPVF

TAF KBAB 190305Z 1903/2009 33009KT 9999 SKC QNH3011INS BECMG 2002/2003 15009KT 9999 FEW100 QNH3006INS TX08/1921Z TNM01/1914Z